Stockholm Bromma, Sweden

3:51 PM CEST on September 30, 2014 (GMT +0200)
Stora Ursvik | Change Station
CLOSE
Current Station
Personal Weather Station
Location: Sundbyberg, STOCKHOLM COUNTY
Elevation: 95 ft
Nearby Weather Stations

Elev 95 ft 59.38 °N, 17.95 °E | Updated 47 seconds ago

Clear
Clear
59.0 °F
Feels Like 59.0 °F
N
6.0
Wind Variable Wind from NW
Gusts 10.7 mph

Today
High -- | Low -- °F
--% Chance of Precip.
Yesterday
High -- | Low -- °F
Precip. -- in
6:50 AM 6:24 PM
Waxing Crescent, 37% visible
Pressure 30.33 in
Visibility -9999.0 miles
Clouds
Dew Point 38 °F
Humidity 46%
Rainfall 0.00 in
Snow Depth Not available.
UV Not available.
Pollen Not available.
Air Quality Not available.
Flu Activity Not available.
METAR ESSB 301320Z 30007KT 260V340 CAVOK 13/03 Q1027

More Conditions Fewer Conditions

Pressure 30.33 in
Visibility -9999.0 miles
Clouds
Dew Point 38 °F
Humidity 46%
Rainfall 0.00 in
Snow Depth Not available.
UV Not available.
Pollen Not available.
Air Quality Not available.
Flu Activity Not available.
METAR ESSB 301320Z 30007KT 260V340 CAVOK 13/03 Q1027

More Conditions Fewer Conditions

10-Day Weather Forecast

Almanac

Astronomy

Sep. 30, 2014 Rise Set
Actual Time 6:50 AM CEST 6:24 PM CEST
Civil Twilight 6:09 AM CEST 7:05 PM CEST
Nautical Twilight 5:21 AM CEST 7:52 PM CEST
Astronomical Twilight 4:31 AM CEST 8:43 PM CEST
Moon 1:50 PM CEST 9:29 PM CEST
Length of Visible Light 12h 55m
Length of Day
11h 34m
Tomorrow will be 5m 15s shorter.
Waxing Crescent, 37% of the Moon is Illuminated
Today
Waxing Crescent
Oct 1
First Quarter
Oct 8
Full
Oct 15
Last Quarter
Oct 23
New

Yesterday's Extremes

Country Highs Country Lows

Community

WunderPhotos

Upload Photos

1,757,636 photos uploaded!

Nearby

Snow Depth

Not available.

Earthquake Activity

City Distance Mag. Time & Date
No recent earthquake activity has been reported nearby.
Minimum magnitude displayed is 2.5.

Coastal Water Temperatures

Place Temperature
No Stations Reporting

Nearby Weather Stations